Time,TemperatureF,DewpointF,PressureIn,WindDirection,WindDirectionDegrees,WindSpeedMPH,WindSpeedGustMPH,Humidity,HourlyPrecipIn,Conditions,Clouds,dailyrainin,SoftwareType,DateUTC
2013-05-10 00:00:00,70.2,56.6,29.99,SW,236,4.0,4.0,62,0.00,BKN,,0.00,WeatherDisplay:10.37,2013-05-10 04:00:00,
2013-05-10 00:01:00,70.2,56.6,29.99,SW,236,3.5,3.5,62,0.00,BKN,,0.00,WeatherDisplay:10.37,2013-05-10 04:01:00,
2013-05-10 00:03:00,70.2,56.1,29.99,SW,234,5.0,5.0,61,0.00,SCT,,0.00,WeatherDisplay:10.37,2013-05-10 04:03:00,
2013-05-10 00:05:00,70.2,56.1,29.99,SW,232,6.0,6.0,61,0.00,SCT,,0.00,WeatherDisplay:10.37,2013-05-10 04:05:00,
2013-05-10 00:08:00,70.3,56.2,29.99,SW,230,4.0,4.0,61,0.00,SCT,,0.00,WeatherDisplay:10.37,2013-05-10 04:08:00,
2013-05-10 00:13:00,70.4,56.3,29.98,SSW,206,5.8,5.8,61,0.00,SCT,,0.00,WeatherDisplay:10.37,2013-05-10 04:13:00,
2013-05-10 00:18:00,70.5,56.4,29.98,SW,214,7.0,7.0,61,0.00,SCT,,0.00,WeatherDisplay:10.37,2013-05-10 04:18:00,
2013-05-10 00:23:00,70.5,56.4,29.98,SW,214,5.8,5.8,61,0.00,SCT,,0.00,WeatherDisplay:10.37,2013-05-10 04:23:00,
2013-05-10 00:28:00,70.5,56.4,29.98,SSW,209,9.2,9.2,61,0.00,SCT,,0.00,WeatherDisplay:10.37,2013-05-10 04:28:00,
2013-05-10 00:33:00,70.5,56.4,29.97,SSW,197,3.5,3.5,61,0.00,SCT,,0.00,WeatherDisplay:10.37,2013-05-10 04:33:00,
2013-05-10 00:38:00,70.4,56.8,29.97,SSW,205,4.0,4.0,62,0.00,SCT,,0.00,WeatherDisplay:10.37,2013-05-10 04:38:00,
2013-05-10 00:43:00,70.4,56.8,29.98,SW,218,4.6,4.6,62,0.00,SCT,,0.00,WeatherDisplay:10.37,2013-05-10 04:43:00,
2013-05-10 00:48:00,70.4,56.8,29.97,SW,228,6.9,6.9,62,0.00,SCT,,0.00,WeatherDisplay:10.37,2013-05-10 04:48:00,
2013-05-10 00:53:00,70.3,56.7,29.98,SSW,199,7.0,7.0,62,0.00,SCT,,0.00,WeatherDisplay:10.37,2013-05-10 04:53:00,
2013-05-10 00:58:00,70.3,56.7,29.98,SW,217,8.0,8.0,62,0.00,SCT,,0.00,WeatherDisplay:10.37,2013-05-10 04:58:00,
2013-05-10 01:03:00,70.3,56.7,29.98,South,190,6.0,6.0,62,0.00,SCT,,0.00,WeatherDisplay:10.37,2013-05-10 05:03:00,
2013-05-10 01:08:00,70.1,56.5,29.98,SSW,206,5.0,5.0,62,0.00,SCT,,0.00,WeatherDisplay:10.37,2013-05-10 05:08:00,
2013-05-10 01:13:00,69.9,56.7,29.98,SSW,201,4.0,4.0,63,0.00,SCT,,0.00,WeatherDisplay:10.37,2013-05-10 05:13:00,
2013-05-10 01:18:00,69.6,56.4,29.98,South,175,10.4,10.4,63,0.00,SCT,,0.00,WeatherDisplay:10.37,2013-05-10 05:18:00,
2013-05-10 01:23:00,69.4,56.7,29.98,South,191,5.8,5.8,64,0.00,SCT,,0.00,WeatherDisplay:10.37,2013-05-10 05:23:00,
2013-05-10 01:28:00,69.1,56.8,29.98,South,190,3.0,3.0,65,0.00,SCT,,0.00,WeatherDisplay:10.37,2013-05-10 05:28:00,
2013-05-10 01:33:00,68.7,56.5,29.98,SSW,201,3.5,3.5,65,0.00,SCT,,0.00,WeatherDisplay:10.37,2013-05-10 05:33:00,
2013-05-10 01:38:00,68.5,56.3,29.98,SSW,195,8.1,8.1,65,0.00,SCT,,0.00,WeatherDisplay:10.37,2013-05-10 05:38:00,
2013-05-10 01:43:00,68.3,56.5,29.98,SSW,195,6.0,6.0,66,0.00,SCT,,0.00,WeatherDisplay:10.37,2013-05-10 05:43:00,
2013-05-10 01:48:00,68.0,56.2,29.98,South,186,5.0,5.0,66,0.00,SCT,,0.00,WeatherDisplay:10.37,2013-05-10 05:48:00,
2013-05-10 01:53:00,67.8,56.4,29.98,SSW,192,4.0,4.0,67,0.00,SCT,,0.00,WeatherDisplay:10.37,2013-05-10 05:53:00,
2013-05-10 01:58:00,67.6,56.7,29.98,SSW,198,4.0,4.0,68,0.00,SCT,,0.00,WeatherDisplay:10.37,2013-05-10 05:58:00,
2013-05-10 02:03:00,67.5,56.6,29.98,SSW,199,3.5,3.5,68,0.00,CLR,,0.00,WeatherDisplay:10.37,2013-05-10 06:03:00,
2013-05-10 02:08:00,67.4,56.5,29.97,SSW,193,4.6,4.6,68,0.00,CLR,,0.00,WeatherDisplay:10.37,2013-05-10 06:08:00,
2013-05-10 02:13:00,67.2,56.3,29.97,SSW,199,5.8,5.8,68,0.00,CLR,,0.00,WeatherDisplay:10.37,2013-05-10 06:13:00,
2013-05-10 02:18:00,67.1,56.6,29.97,SW,222,6.0,6.0,69,0.00,CLR,,0.00,WeatherDisplay:10.37,2013-05-10 06:18:00,
2013-05-10 02:23:00,67.0,56.5,29.97,SSW,196,4.0,4.0,69,0.00,CLR,,0.00,WeatherDisplay:10.37,2013-05-10 06:23:00,
2013-05-10 02:28:00,66.9,56.4,29.96,SSW,198,5.0,5.0,69,0.00,CLR,,0.00,WeatherDisplay:10.37,2013-05-10 06:28:00,
2013-05-10 02:33:00,66.8,56.3,29.96,South,191,5.0,5.0,69,0.00,CLR,,0.00,WeatherDisplay:10.37,2013-05-10 06:33:00,
2013-05-10 02:38:00,66.8,56.3,29.96,SSW,195,6.0,6.0,69,0.00,CLR,,0.00,WeatherDisplay:10.37,2013-05-10 06:38:00,
2013-05-10 02:43:00,66.7,56.6,29.96,South,191,8.0,8.0,70,0.00,CLR,,0.00,WeatherDisplay:10.37,2013-05-10 06:43:00,
2013-05-10 02:48:00,66.6,56.5,29.96,South,190,5.0,5.0,70,0.00,CLR,,0.00,WeatherDisplay:10.37,2013-05-10 06:48:00,
2013-05-10 02:53:00,66.5,56.4,29.96,SSW,209,6.0,6.0,70,0.00,CLR,,0.00,WeatherDisplay:10.37,2013-05-10 06:53:00,
2013-05-10 02:58:00,66.4,56.7,29.96,SW,214,3.5,3.5,71,0.00,CLR,,0.00,WeatherDisplay:10.37,2013-05-10 06:58:00,
2013-05-10 03:03:00,66.4,56.7,29.96,SW,229,6.9,6.9,71,0.00,CLR,,0.00,WeatherDisplay:10.37,2013-05-10 07:03:00,
2013-05-10 03:08:00,66.4,56.7,29.96,SSW,209,5.0,5.0,71,0.00,CLR,,0.00,WeatherDisplay:10.37,2013-05-10 07:08:00,
2013-05-10 03:13:00,66.3,56.6,29.96,SSW,197,6.0,6.0,71,0.00,CLR,,0.00,WeatherDisplay:10.37,2013-05-10 07:13:00,
2013-05-10 03:18:00,66.3,56.6,29.96,SSW,212,4.6,4.6,71,0.00,CLR,,0.00,WeatherDisplay:10.37,2013-05-10 07:18:00,
2013-05-10 03:23:00,66.3,56.6,29.96,SSW,192,3.0,3.0,71,0.00,CLR,,0.00,WeatherDisplay:10.37,2013-05-10 07:23:00,
2013-05-10 03:28:00,66.2,56.5,29.95,SSW,194,5.0,5.0,71,0.00,CLR,,0.00,WeatherDisplay:10.37,2013-05-10 07:28:00,
2013-05-10 03:33:00,66.2,56.5,29.95,SSW,195,3.5,3.5,71,0.00,CLR,,0.00,WeatherDisplay:10.37,2013-05-10 07:33:00,
2013-05-10 03:38:00,66.2,56.5,29.95,SSW,210,4.0,4.0,71,0.00,CLR,,0.00,WeatherDisplay:10.37,2013-05-10 07:38:00,
2013-05-10 03:43:00,66.1,56.4,29.95,SSW,197,5.0,5.0,71,0.00,CLR,,0.00,WeatherDisplay:10.37,2013-05-10 07:43:00,
2013-05-10 03:48:00,66.1,56.4,29.95,SSW,197,4.0,4.0,71,0.00,CLR,,0.00,WeatherDisplay:10.37,2013-05-10 07:48:00,
2013-05-10 03:53:00,66.2,56.5,29.95,SSW,207,7.0,7.0,71,0.00,CLR,,0.00,WeatherDisplay:10.37,2013-05-10 07:53:00,
2013-05-10 03:58:00,66.2,56.5,29.95,SSW,209,3.5,3.5,71,0.00,CLR,,0.00,WeatherDisplay:10.37,2013-05-10 07:58:00,
2013-05-10 04:03:00,66.2,56.5,29.95,South,187,4.6,4.6,71,0.00,CLR,,0.00,WeatherDisplay:10.37,2013-05-10 08:03:00,
2013-05-10 04:08:00,66.1,56.8,29.94,SSW,208,7.0,7.0,72,0.00,CLR,,0.00,WeatherDisplay:10.37,2013-05-10 08:08:00,
2013-05-10 04:13:00,66.1,56.8,29.94,SSW,206,7.0,7.0,72,0.00,CLR,,0.00,WeatherDisplay:10.37,2013-05-10 08:13:00,
2013-05-10 04:18:00,66.0,56.7,29.94,SW,222,8.0,8.0,72,0.00,CLR,,0.00,WeatherDisplay:10.37,2013-05-10 08:18:00,
2013-05-10 04:23:00,66.0,56.7,29.94,SSW,207,4.0,4.0,72,0.00,CLR,,0.00,WeatherDisplay:10.37,2013-05-10 08:23:00,
2013-05-10 04:28:00,65.9,56.6,29.94,SW,219,7.0,7.0,72,0.00,CLR,,0.00,WeatherDisplay:10.37,2013-05-10 08:28:00,
2013-05-10 04:33:00,65.9,56.6,29.93,SW,218,3.5,3.5,72,0.00,CLR,,0.00,WeatherDisplay:10.37,2013-05-10 08:33:00,
2013-05-10 04:38:00,65.9,56.6,29.94,SW,218,4.6,4.6,72,0.00,CLR,,0.00,WeatherDisplay:10.37,2013-05-10 08:38:00,
2013-05-10 04:43:00,65.7,56.8,29.93,SW,217,2.3,2.3,73,0.00,CLR,,0.00,WeatherDisplay:10.37,2013-05-10 08:43:00,
2013-05-10 04:48:00,65.5,56.6,29.93,SW,216,3.5,3.5,73,0.00,CLR,,0.00,WeatherDisplay:10.37,2013-05-10 08:48:00,
2013-05-10 04:53:00,65.5,56.6,29.93,SW,215,3.5,3.5,73,0.00,CLR,,0.00,WeatherDisplay:10.37,2013-05-10 08:53:00,
2013-05-10 04:58:00,65.4,56.5,29.93,SSW,213,4.0,4.0,73,0.00,CLR,,0.00,WeatherDisplay:10.37,2013-05-10 08:58:00,
2013-05-10 05:03:00,65.2,56.7,29.93,SSW,212,4.0,4.0,74,0.00,CLR,,0.00,WeatherDisplay:10.37,2013-05-10 09:03:00,
2013-05-10 05:08:00,65.2,56.7,29.93,SSW,210,3.5,3.5,74,0.00,CLR,,0.00,WeatherDisplay:10.37,2013-05-10 09:08:00,
2013-05-10 05:13:00,65.0,56.5,29.93,SSW,210,2.3,2.3,74,0.00,CLR,,0.00,WeatherDisplay:10.37,2013-05-10 09:13:00,
2013-05-10 05:18:00,64.8,56.3,29.93,SSW,210,2.3,0.0,74,0.00,CLR,,0.00,WeatherDisplay:10.37,2013-05-10 09:18:00,
2013-05-10 05:23:00,64.5,56.4,29.93,SSW,205,3.5,3.5,75,0.00,CLR,,0.00,WeatherDisplay:10.37,2013-05-10 09:23:00,
2013-05-10 05:28:00,64.3,56.2,29.93,SSW,205,0.0,0.0,75,0.00,CLR,,0.00,WeatherDisplay:10.37,2013-05-10 09:28:00,
2013-05-10 05:33:00,64.2,56.5,29.93,SSW,202,3.5,3.5,76,0.00,CLR,,0.00,WeatherDisplay:10.37,2013-05-10 09:33:00,
2013-05-10 05:38:00,64.1,56.4,29.93,SSW,199,4.0,4.0,76,0.00,CLR,,0.00,WeatherDisplay:10.37,2013-05-10 09:38:00,
2013-05-10 05:43:00,64.0,56.3,29.93,SSW,195,5.0,5.0,76,0.00,CLR,,0.00,WeatherDisplay:10.37,2013-05-10 09:43:00,
2013-05-10 05:48:00,64.1,56.4,29.93,SSW,195,2.3,2.3,76,0.00,CLR,,0.00,WeatherDisplay:10.37,2013-05-10 09:48:00,
2013-05-10 05:53:00,64.1,56.4,29.93,SSW,192,1.1,0.0,76,0.00,CLR,,0.00,WeatherDisplay:10.37,2013-05-10 09:53:00,
2013-05-10 05:58:00,64.1,56.4,29.92,SSW,192,5.0,5.0,76,0.00,CLR,,0.00,WeatherDisplay:10.37,2013-05-10 09:58:00,
2013-05-10 06:03:00,64.0,56.3,29.92,SSW,192,3.5,3.5,76,0.00,CLR,,0.00,WeatherDisplay:10.37,2013-05-10 10:03:00,
2013-05-10 06:08:00,64.0,56.3,29.92,South,191,2.0,2.0,76,0.00,CLR,,0.00,WeatherDisplay:10.37,2013-05-10 10:08:00,
2013-05-10 06:13:00,64.0,56.3,29.92,South,191,3.5,3.5,76,0.00,CLR,,0.00,WeatherDisplay:10.37,2013-05-10 10:13:00,
2013-05-10 06:18:00,64.0,56.3,29.92,SSW,199,4.0,4.0,76,0.00,CLR,,0.00,WeatherDisplay:10.37,2013-05-10 10:18:00,
2013-05-10 06:23:00,64.1,56.4,29.92,SSW,196,5.0,5.0,76,0.00,CLR,,0.00,WeatherDisplay:10.37,2013-05-10 10:23:00,
2013-05-10 06:28:00,64.2,56.5,29.92,South,186,2.3,2.3,76,0.00,CLR,,0.00,WeatherDisplay:10.37,2013-05-10 10:28:00,
2013-05-10 06:33:00,64.2,56.5,29.92,South,189,3.5,3.5,76,0.00,CLR,,0.00,WeatherDisplay:10.37,2013-05-10 10:33:00,
2013-05-10 06:38:00,64.2,56.5,29.92,South,191,4.0,4.0,76,0.00,CLR,,0.00,WeatherDisplay:10.37,2013-05-10 10:38:00,
2013-05-10 06:43:00,64.2,56.5,29.92,South,191,1.1,1.1,76,0.00,CLR,,0.00,WeatherDisplay:10.37,2013-05-10 10:43:00,
2013-05-10 06:48:00,64.1,56.4,29.92,South,191,3.0,3.0,76,0.00,CLR,,0.00,WeatherDisplay:10.37,2013-05-10 10:48:00,
2013-05-10 06:53:00,64.2,56.8,29.92,SSW,193,4.6,4.6,77,0.00,CLR,,0.00,WeatherDisplay:10.37,2013-05-10 10:53:00,
2013-05-10 06:58:00,64.3,56.6,29.92,South,191,6.0,6.0,76,0.00,CLR,,0.00,WeatherDisplay:10.37,2013-05-10 10:58:00,
2013-05-10 07:03:00,64.4,56.7,29.92,SSW,203,6.0,6.0,76,0.00,CLR,,0.00,WeatherDisplay:10.37,2013-05-10 11:03:00,
2013-05-10 07:08:00,64.4,56.7,29.92,SSW,198,4.0,4.0,76,0.00,CLR,,0.00,WeatherDisplay:10.37,2013-05-10 11:08:00,
2013-05-10 07:13:00,64.4,56.7,29.92,SSW,197,3.5,3.5,76,0.00,CLR,,0.00,WeatherDisplay:10.37,2013-05-10 11:13:00,
2013-05-10 07:18:00,64.4,57.0,29.92,SSW,195,3.5,3.5,77,0.00,CLR,,0.00,WeatherDisplay:10.37,2013-05-10 11:18:00,
2013-05-10 07:23:00,64.3,56.9,29.92,SSW,195,1.1,1.1,77,0.00,CLR,,0.00,WeatherDisplay:10.37,2013-05-10 11:23:00,
2013-05-10 07:28:00,64.2,56.8,29.92,SSW,194,5.0,5.0,77,0.00,CLR,,0.00,WeatherDisplay:10.37,2013-05-10 11:28:00,
2013-05-10 07:33:00,64.1,56.7,29.93,SSW,194,3.5,3.5,77,0.00,CLR,,0.00,WeatherDisplay:10.37,2013-05-10 11:33:00,
2013-05-10 07:38:00,64.2,56.8,29.93,SSW,193,3.5,3.5,77,0.00,CLR,,0.00,WeatherDisplay:10.37,2013-05-10 11:38:00,
2013-05-10 07:43:00,64.2,56.8,29.93,SSW,194,5.0,5.0,77,0.00,CLR,,0.00,WeatherDisplay:10.37,2013-05-10 11:43:00,
2013-05-10 07:48:00,64.3,56.9,29.93,SSW,194,5.0,5.0,77,0.00,CLR,,0.00,WeatherDisplay:10.37,2013-05-10 11:48:00,
2013-05-10 07:53:00,64.4,57.0,29.93,SSW,195,5.0,5.0,77,0.00,CLR,,0.00,WeatherDisplay:10.37,2013-05-10 11:53:00,
2013-05-10 07:58:00,64.5,57.1,29.93,SSW,196,1.1,1.1,77,0.00,CLR,,0.00,WeatherDisplay:10.37,2013-05-10 11:58:00,
2013-05-10 08:03:00,64.6,57.2,29.93,SSW,193,4.0,4.0,77,0.00,CLR,,0.00,WeatherDisplay:10.37,2013-05-10 12:03:00,
2013-05-10 08:08:00,64.7,57.3,29.94,South,191,3.0,3.0,77,0.00,CLR,,0.00,WeatherDisplay:10.37,2013-05-10 12:08:00,
2013-05-10 08:13:00,64.7,57.3,29.93,SSW,193,3.5,3.5,77,0.00,CLR,,0.00,WeatherDisplay:10.37,2013-05-10 12:13:00,
2013-05-10 08:18:00,64.7,57.3,29.93,South,189,4.6,4.6,77,0.00,CLR,,0.00,WeatherDisplay:10.37,2013-05-10 12:18:00,
2013-05-10 08:23:00,64.8,57.4,29.93,South,185,5.0,5.0,77,0.00,CLR,,0.00,WeatherDisplay:10.37,2013-05-10 12:23:00,
2013-05-10 08:28:00,64.9,57.5,29.93,South,186,5.0,5.0,77,0.00,CLR,,0.00,WeatherDisplay:10.37,2013-05-10 12:28:00,
2013-05-10 08:33:00,65.1,57.7,29.92,South,186,6.0,6.0,77,0.00,CLR,,0.00,WeatherDisplay:10.37,2013-05-10 12:33:00,
2013-05-10 08:38:00,65.4,58.0,29.92,South,186,1.1,1.1,77,0.00,CLR,,0.00,WeatherDisplay:10.37,2013-05-10 12:38:00,
2013-05-10 08:43:00,65.6,57.8,29.92,South,187,5.0,5.0,76,0.00,CLR,,0.00,WeatherDisplay:10.37,2013-05-10 12:43:00,
2013-05-10 08:48:00,65.9,58.1,29.92,South,189,5.0,5.0,76,0.00,CLR,,0.00,WeatherDisplay:10.37,2013-05-10 12:48:00,
2013-05-10 08:53:00,66.1,57.9,29.92,South,183,6.0,6.0,75,0.00,CLR,,0.00,WeatherDisplay:10.37,2013-05-10 12:53:00,
2013-05-10 08:58:00,66.3,58.1,29.92,South,185,6.0,6.0,75,0.00,CLR,,0.00,WeatherDisplay:10.37,2013-05-10 12:58:00,
2013-05-10 09:03:00,66.5,58.3,29.92,South,182,5.0,5.0,75,0.00,SCT,,0.00,WeatherDisplay:10.37,2013-05-10 13:03:00,
2013-05-10 09:08:00,66.6,58.1,29.91,SSW,200,7.0,7.0,74,0.00,SCT,,0.00,WeatherDisplay:10.37,2013-05-10 13:08:00,
2013-05-10 09:13:00,66.7,58.1,29.91,South,191,7.0,7.0,74,0.00,SCT,,0.00,WeatherDisplay:10.37,2013-05-10 13:13:00,
2013-05-10 09:18:00,66.9,58.3,29.91,SSW,193,4.0,4.0,74,0.00,SCT,,0.00,WeatherDisplay:10.37,2013-05-10 13:18:00,
2013-05-10 09:23:00,67.1,58.5,29.91,South,191,6.9,6.9,74,0.00,SCT,,0.00,WeatherDisplay:10.37,2013-05-10 13:23:00,
2013-05-10 09:28:00,67.1,58.5,29.91,South,187,3.5,0.0,74,0.00,SCT,,0.00,WeatherDisplay:10.37,2013-05-10 13:28:00,
2013-05-10 09:33:00,67.1,58.5,29.91,South,191,4.0,4.0,74,0.00,SCT,,0.00,WeatherDisplay:10.37,2013-05-10 13:33:00,
2013-05-10 09:38:00,67.1,58.5,29.91,South,189,8.1,8.1,74,0.00,SCT,,0.00,WeatherDisplay:10.37,2013-05-10 13:38:00,
2013-05-10 09:43:00,67.0,58.4,29.91,SW,234,3.5,3.5,74,0.00,SCT,,0.00,WeatherDisplay:10.37,2013-05-10 13:43:00,
2013-05-10 09:48:00,67.0,58.4,29.91,SW,234,3.5,3.5,74,0.00,SCT,,0.00,WeatherDisplay:10.37,2013-05-10 13:48:00,
2013-05-10 09:53:00,66.9,58.3,29.91,SSW,211,4.6,4.6,74,0.00,SCT,,0.00,WeatherDisplay:10.37,2013-05-10 13:53:00,
2013-05-10 09:58:00,66.9,58.7,29.92,SSW,192,10.4,10.4,75,0.00,SCT,,0.00,WeatherDisplay:10.37,2013-05-10 13:58:00,
2013-05-10 10:03:00,66.8,58.6,29.92,South,187,8.1,8.1,75,0.00,BKN,,0.00,WeatherDisplay:10.37,2013-05-10 14:03:00,
2013-05-10 10:08:00,66.9,58.7,29.92,South,190,6.0,6.0,75,0.00,BKN,,0.00,WeatherDisplay:10.37,2013-05-10 14:08:00,
2013-05-10 10:13:00,66.9,58.7,29.92,South,178,7.0,7.0,75,0.00,BKN,,0.00,WeatherDisplay:10.37,2013-05-10 14:13:00,
2013-05-10 10:18:00,66.9,59.1,29.93,South,191,6.9,6.9,76,0.00,BKN,,0.00,WeatherDisplay:10.37,2013-05-10 14:18:00,
2013-05-10 10:23:00,66.7,58.5,29.94,SW,234,10.4,10.4,75,0.00,BKN,,0.00,WeatherDisplay:10.37,2013-05-10 14:23:00,
2013-05-10 10:28:00,66.2,58.8,29.94,WSW,239,5.8,5.8,77,0.01,RA,,0.02,WeatherDisplay:10.37,2013-05-10 14:28:00,
2013-05-10 10:33:00,65.4,58.7,29.95,WSW,249,8.1,8.1,79,0.02,RA,,0.02,WeatherDisplay:10.37,2013-05-10 14:33:00,
2013-05-10 10:38:00,64.8,58.8,29.95,West,261,6.0,6.0,81,0.03,RA,,0.03,WeatherDisplay:10.37,2013-05-10 14:38:00,
2013-05-10 10:43:00,64.3,58.7,29.96,West,259,6.0,6.0,82,0.03,RA,,0.03,WeatherDisplay:10.37,2013-05-10 14:43:00,
2013-05-10 10:48:00,63.8,58.5,29.96,West,260,5.0,5.0,83,0.05,RA,,0.05,WeatherDisplay:10.37,2013-05-10 14:48:00,
2013-05-10 10:53:00,63.4,58.5,29.96,West,260,6.0,6.0,84,0.06,RA,,0.06,WeatherDisplay:10.37,2013-05-10 14:53:00,
2013-05-10 10:58:00,63.1,58.8,29.96,SW,220,5.8,5.8,86,0.08,RA,,0.08,WeatherDisplay:10.37,2013-05-10 14:58:00,
2013-05-10 11:03:00,62.9,58.6,29.95,SW,220,4.6,4.6,86,0.09,RA,,0.09,WeatherDisplay:10.37,2013-05-10 15:03:00,
2013-05-10 11:08:00,62.8,58.9,29.96,SW,229,6.0,6.0,87,0.11,RA,,0.11,WeatherDisplay:10.37,2013-05-10 15:08:00,
2013-05-10 11:13:00,62.7,58.8,29.96,SW,230,3.5,3.5,87,0.11,RA,,0.11,WeatherDisplay:10.37,2013-05-10 15:13:00,
2013-05-10 11:18:00,62.7,59.1,29.96,SW,230,3.5,0.0,88,0.13,RA,,0.13,WeatherDisplay:10.37,2013-05-10 15:18:00,
2013-05-10 11:23:00,62.7,59.1,29.95,SW,230,4.0,4.0,88,0.13,RA,,0.13,WeatherDisplay:10.37,2013-05-10 15:23:00,
2013-05-10 11:28:00,62.7,59.1,29.95,SW,229,4.6,4.6,88,0.12,RA,,0.14,WeatherDisplay:10.37,2013-05-10 15:28:00,
2013-05-10 11:33:00,62.9,59.6,29.95,SW,229,6.0,6.0,89,0.12,RA,,0.14,WeatherDisplay:10.37,2013-05-10 15:33:00,
2013-05-10 11:38:00,62.9,59.6,29.95,SW,231,4.0,4.0,89,0.12,RA,,0.15,WeatherDisplay:10.37,2013-05-10 15:38:00,
2013-05-10 11:43:00,63.1,59.8,29.95,SW,232,4.0,4.0,89,0.12,RA,,0.15,WeatherDisplay:10.37,2013-05-10 15:43:00,
2013-05-10 11:48:00,63.2,59.9,29.95,SW,232,6.0,6.0,89,0.11,RA,,0.16,WeatherDisplay:10.37,2013-05-10 15:48:00,
2013-05-10 11:53:00,63.4,60.1,29.95,SW,232,5.8,5.8,89,0.11,RA,,0.17,WeatherDisplay:10.37,2013-05-10 15:53:00,
2013-05-10 11:59:00,63.4,60.4,29.95,SW,230,6.0,6.0,90,0.09,RA,,0.17,WeatherDisplay:10.37,2013-05-10 15:59:00,
2013-05-10 12:04:00,63.5,60.5,29.95,SW,218,7.0,7.0,90,0.08,-RA,,0.18,WeatherDisplay:10.37,2013-05-10 16:04:00,
2013-05-10 12:09:00,63.5,60.5,29.94,SW,221,5.0,5.0,90,0.07,-RA,,0.18,WeatherDisplay:10.37,2013-05-10 16:09:00,
2013-05-10 12:14:00,63.6,60.6,29.94,SW,222,5.0,5.0,90,0.08,-RA,,0.19,WeatherDisplay:10.37,2013-05-10 16:14:00,
2013-05-10 12:19:00,63.5,60.5,29.94,WSW,240,3.5,3.5,90,0.06,-RA,,0.20,WeatherDisplay:10.37,2013-05-10 16:19:00,
2013-05-10 12:24:00,63.8,60.8,29.94,WSW,240,2.3,2.3,90,0.07,-RA,,0.21,WeatherDisplay:10.37,2013-05-10 16:24:00,
2013-05-10 12:29:00,63.8,60.8,29.94,WSW,241,4.0,4.0,90,0.07,-RA,,0.21,WeatherDisplay:10.37,2013-05-10 16:29:00,
2013-05-10 12:34:00,63.6,60.6,29.94,SW,236,6.9,6.9,90,0.11,-RA,,0.25,WeatherDisplay:10.37,2013-05-10 16:34:00,
2013-05-10 12:39:00,63.3,60.3,29.94,SW,231,9.2,9.2,90,0.20,-RA,,0.35,WeatherDisplay:10.37,2013-05-10 16:39:00,
2013-05-10 12:44:00,63.1,60.1,29.94,WSW,239,5.0,5.0,90,0.24,-RA,,0.39,WeatherDisplay:10.37,2013-05-10 16:44:00,
2013-05-10 12:49:00,63.1,60.1,29.95,SW,228,11.5,11.5,90,0.24,-RA,,0.40,WeatherDisplay:10.37,2013-05-10 16:49:00,
2013-05-10 12:54:00,63.3,60.3,29.95,WSW,241,15.0,15.0,90,0.24,-RA,,0.41,WeatherDisplay:10.37,2013-05-10 16:54:00,
2013-05-10 12:59:00,63.3,60.3,29.95,West,263,16.0,16.0,90,0.24,-RA,,0.41,WeatherDisplay:10.37,2013-05-10 16:59:00,
2013-05-10 13:04:00,63.4,60.4,29.94,West,260,11.5,11.5,90,0.24,-RA,,0.42,WeatherDisplay:10.37,2013-05-10 17:04:00,
2013-05-10 13:09:00,63.4,60.4,29.95,West,267,13.0,13.0,90,0.24,-RA,,0.42,WeatherDisplay:10.37,2013-05-10 17:09:00,
2013-05-10 13:14:00,63.3,60.3,29.94,SW,229,11.5,11.5,90,0.24,-RA,,0.43,WeatherDisplay:10.37,2013-05-10 17:14:00,
2013-05-10 13:19:00,63.4,60.4,29.95,WSW,238,12.0,12.0,90,0.25,-RA,,0.44,WeatherDisplay:10.37,2013-05-10 17:19:00,
2013-05-10 13:24:00,63.4,60.4,29.94,West,273,6.9,6.9,90,0.24,-RA,,0.44,WeatherDisplay:10.37,2013-05-10 17:24:00,
2013-05-10 13:29:00,63.4,60.4,29.94,WNW,288,9.2,9.2,90,0.24,-RA,,0.45,WeatherDisplay:10.37,2013-05-10 17:29:00,
2013-05-10 13:34:00,63.5,60.5,29.94,WSW,237,6.9,6.9,90,0.21,-RA,,0.46,WeatherDisplay:10.37,2013-05-10 17:34:00,
2013-05-10 13:39:00,63.6,60.6,29.93,WSW,245,10.0,10.0,90,0.11,-RA,,0.46,WeatherDisplay:10.37,2013-05-10 17:39:00,
2013-05-10 13:44:00,63.6,60.6,29.93,West,266,6.0,6.0,90,0.09,-RA,,0.47,WeatherDisplay:10.37,2013-05-10 17:44:00,
2013-05-10 13:49:00,63.7,60.7,29.93,SW,219,8.1,8.1,90,0.07,-RA,,0.47,WeatherDisplay:10.37,2013-05-10 17:49:00,
2013-05-10 13:54:00,63.7,60.7,29.93,SW,229,6.9,6.9,90,0.06,-RA,,0.47,WeatherDisplay:10.37,2013-05-10 17:54:00,
2013-05-10 13:59:00,63.8,60.8,29.93,SW,220,5.0,5.0,90,0.06,-RA,,0.47,WeatherDisplay:10.37,2013-05-10 17:59:00,
2013-05-10 14:04:00,63.8,60.8,29.93,SW,222,7.0,7.0,90,0.06,-RA,,0.48,WeatherDisplay:10.37,2013-05-10 18:04:00,
2013-05-10 14:09:00,63.9,60.9,29.93,SW,217,5.0,5.0,90,0.06,-RA,,0.48,WeatherDisplay:10.37,2013-05-10 18:09:00,
2013-05-10 14:14:00,63.9,60.9,29.93,WSW,239,12.0,12.0,90,0.05,-RA,,0.48,WeatherDisplay:10.37,2013-05-10 18:14:00,
2013-05-10 14:19:00,63.8,60.5,29.93,SW,224,9.2,9.2,89,0.04,-RA,,0.48,WeatherDisplay:10.37,2013-05-10 18:19:00,
2013-05-10 14:24:00,63.8,60.5,29.93,WSW,243,6.0,6.0,89,0.05,-RA,,0.49,WeatherDisplay:10.37,2013-05-10 18:24:00,
2013-05-10 14:29:00,63.6,60.3,29.93,SSW,197,12.0,12.0,89,0.04,-RA,,0.49,WeatherDisplay:10.37,2013-05-10 18:29:00,
2013-05-10 14:34:00,63.6,60.3,29.93,WSW,251,8.0,8.0,89,0.04,-RA,,0.50,WeatherDisplay:10.37,2013-05-10 18:34:00,
2013-05-10 14:39:00,63.5,60.2,29.92,SW,215,15.0,15.0,89,0.05,-RA,,0.51,WeatherDisplay:10.37,2013-05-10 18:39:00,
2013-05-10 14:44:00,63.5,60.2,29.92,SW,235,15.0,15.0,89,0.04,-RA,,0.51,WeatherDisplay:10.37,2013-05-10 18:44:00,
2013-05-10 14:49:00,63.5,59.9,29.92,WSW,256,17.3,17.3,88,0.04,-RA,,0.51,WeatherDisplay:10.37,2013-05-10 18:49:00,
2013-05-10 14:54:00,63.5,59.9,29.91,West,259,9.0,9.0,88,0.04,-RA,,0.51,WeatherDisplay:10.37,2013-05-10 18:54:00,
2013-05-10 14:59:00,63.5,59.6,29.91,SW,232,7.0,7.0,87,0.04,-RA,,0.51,WeatherDisplay:10.37,2013-05-10 18:59:00,
2013-05-10 15:04:00,63.5,59.6,29.90,WSW,243,11.5,11.5,87,0.03,-RA,,0.51,WeatherDisplay:10.37,2013-05-10 19:04:00,
2013-05-10 15:09:00,63.6,59.7,29.90,WSW,241,8.1,8.1,87,0.04,-RA,,0.52,WeatherDisplay:10.37,2013-05-10 19:09:00,
2013-05-10 15:14:00,63.6,59.7,29.90,SW,231,7.0,7.0,87,0.04,-RA,,0.52,WeatherDisplay:10.37,2013-05-10 19:14:00,
2013-05-10 15:19:00,63.7,59.8,29.90,SSW,207,8.0,8.0,87,0.04,-RA,,0.52,WeatherDisplay:10.37,2013-05-10 19:19:00,
2013-05-10 15:24:00,63.8,59.9,29.89,SW,231,8.0,8.0,87,0.03,-RA,,0.52,WeatherDisplay:10.37,2013-05-10 19:24:00,
2013-05-10 15:29:00,63.7,59.8,29.90,SW,227,12.0,12.0,87,0.03,-RA,,0.52,WeatherDisplay:10.37,2013-05-10 19:29:00,
2013-05-10 15:35:00,63.7,59.8,29.89,WSW,244,6.9,6.9,87,0.02,-RA,,0.52,WeatherDisplay:10.37,2013-05-10 19:35:00,
2013-05-10 15:40:00,63.7,59.8,29.89,WSW,242,13.0,13.0,87,0.01,-RA,,0.52,WeatherDisplay:10.37,2013-05-10 19:40:00,
2013-05-10 15:45:00,63.7,59.8,29.89,SW,224,10.4,10.4,87,0.01,-RA,,0.52,WeatherDisplay:10.37,2013-05-10 19:45:00,
2013-05-10 15:50:00,63.7,59.8,29.89,SW,233,7.0,7.0,87,0.01,-RA,,0.52,WeatherDisplay:10.37,2013-05-10 19:50:00,
2013-05-10 15:55:00,63.7,59.8,29.89,SW,232,9.2,9.2,87,0.02,-RA,,0.53,WeatherDisplay:10.37,2013-05-10 19:55:00,
2013-05-10 16:00:00,63.7,59.8,29.88,WSW,245,9.2,9.2,87,0.02,-RA,,0.53,WeatherDisplay:10.37,2013-05-10 20:00:00,
2013-05-10 16:05:00,63.4,59.5,29.89,SW,233,8.1,8.1,87,0.02,-RA,,0.53,WeatherDisplay:10.37,2013-05-10 20:05:00,
2013-05-10 16:10:00,63.4,59.5,29.88,SSW,193,4.0,4.0,87,0.02,-RA,,0.54,WeatherDisplay:10.37,2013-05-10 20:10:00,
2013-05-10 16:15:00,63.4,59.8,29.88,SW,229,8.0,8.0,88,0.02,-RA,,0.54,WeatherDisplay:10.37,2013-05-10 20:15:00,
2013-05-10 16:20:00,63.4,59.8,29.88,SW,230,8.1,8.1,88,0.02,-RA,,0.54,WeatherDisplay:10.37,2013-05-10 20:20:00,
2013-05-10 16:25:00,63.5,59.9,29.88,SW,224,6.0,6.0,88,0.02,-RA,,0.54,WeatherDisplay:10.37,2013-05-10 20:25:00,
2013-05-10 16:30:00,63.3,59.7,29.87,SW,222,11.5,11.5,88,0.02,-RA,,0.54,WeatherDisplay:10.37,2013-05-10 20:30:00,
2013-05-10 16:35:00,63.3,59.7,29.87,SSW,196,8.0,8.0,88,0.02,-RA,,0.54,WeatherDisplay:10.37,2013-05-10 20:35:00,
2013-05-10 16:40:00,63.2,59.9,29.88,WSW,241,7.0,7.0,89,0.02,-RA,,0.54,WeatherDisplay:10.37,2013-05-10 20:40:00,
2013-05-10 16:45:00,63.1,59.8,29.87,SW,234,7.0,7.0,89,0.02,-RA,,0.54,WeatherDisplay:10.37,2013-05-10 20:45:00,
2013-05-10 16:50:00,63.1,59.8,29.88,SW,228,12.7,12.7,89,0.02,-RA,,0.54,WeatherDisplay:10.37,2013-05-10 20:50:00,
2013-05-10 16:55:00,63.1,59.8,29.87,South,183,9.2,9.2,89,0.03,-RA,,0.55,WeatherDisplay:10.37,2013-05-10 20:55:00,
2013-05-10 17:00:00,63.1,59.8,29.88,WSW,245,9.2,9.2,89,0.02,-RA,,0.55,WeatherDisplay:10.37,2013-05-10 21:00:00,
2013-05-10 17:05:00,63.0,59.7,29.87,SW,232,9.0,9.0,89,0.02,-RA,,0.55,WeatherDisplay:10.37,2013-05-10 21:05:00,
2013-05-10 17:10:00,62.8,59.2,29.87,WSW,247,9.2,9.2,88,0.01,-RA,,0.56,WeatherDisplay:10.37,2013-05-10 21:10:00,
2013-05-10 17:15:00,62.7,59.1,29.87,SW,216,9.0,9.0,88,0.02,-RA,,0.56,WeatherDisplay:10.37,2013-05-10 21:15:00,
2013-05-10 17:20:00,62.6,59.3,29.87,SW,232,8.1,8.1,89,0.03,-RA,,0.57,WeatherDisplay:10.37,2013-05-10 21:20:00,
2013-05-10 17:25:00,62.5,59.2,29.87,WSW,243,6.0,6.0,89,0.04,-RA,,0.58,WeatherDisplay:10.37,2013-05-10 21:25:00,
2013-05-10 17:30:00,62.5,59.2,29.87,SW,226,6.0,6.0,89,0.05,-RA,,0.59,WeatherDisplay:10.37,2013-05-10 21:30:00,
2013-05-10 17:35:00,62.4,59.1,29.87,SSW,194,5.0,5.0,89,0.06,-RA,,0.60,WeatherDisplay:10.37,2013-05-10 21:35:00,
2013-05-10 17:40:00,62.4,59.4,29.87,South,190,5.0,5.0,90,0.07,-RA,,0.61,WeatherDisplay:10.37,2013-05-10 21:40:00,
2013-05-10 17:45:00,62.4,59.4,29.87,WSW,243,21.0,21.0,90,0.07,-RA,,0.61,WeatherDisplay:10.37,2013-05-10 21:45:00,
2013-05-10 17:50:00,62.4,59.4,29.86,SW,220,3.5,3.5,90,0.08,-RA,,0.62,WeatherDisplay:10.37,2013-05-10 21:50:00,
2013-05-10 17:55:00,62.4,59.4,29.86,WSW,245,6.0,6.0,90,0.08,-RA,,0.63,WeatherDisplay:10.37,2013-05-10 21:55:00,
2013-05-10 17:58:00,62.4,59.4,29.86,WSW,245,3.5,3.5,90,0.08,-RA,,0.63,WeatherDisplay:10.37,2013-05-10 21:58:00,
2013-05-10 18:00:00,62.4,59.4,29.86,WSW,244,6.0,6.0,90,0.08,-RA,,0.63,WeatherDisplay:10.37,2013-05-10 22:00:00,
2013-05-10 18:02:00,62.4,59.4,29.86,SW,231,7.0,7.0,90,0.08,-RA,,0.63,WeatherDisplay:10.37,2013-05-10 22:02:00,
2013-05-10 18:07:00,62.4,59.4,29.86,WSW,251,5.0,5.0,90,0.08,-RA,,0.63,WeatherDisplay:10.37,2013-05-10 22:07:00,
2013-05-10 18:12:00,62.4,59.4,29.86,WSW,240,6.9,6.9,90,0.07,-RA,,0.63,WeatherDisplay:10.37,2013-05-10 22:12:00,
2013-05-10 18:17:00,62.4,59.4,29.86,SW,220,10.0,10.0,90,0.06,-RA,,0.63,WeatherDisplay:10.37,2013-05-10 22:17:00,
2013-05-10 18:22:00,62.4,59.4,29.86,WSW,239,8.1,8.1,90,0.06,-RA,,0.64,WeatherDisplay:10.37,2013-05-10 22:22:00,
2013-05-10 18:27:00,62.4,59.4,29.86,SW,236,6.0,6.0,90,0.06,-RA,,0.64,WeatherDisplay:10.37,2013-05-10 22:27:00,
2013-05-10 18:32:00,62.4,59.4,29.86,West,264,9.2,9.2,90,0.05,-RA,,0.64,WeatherDisplay:10.37,2013-05-10 22:32:00,
2013-05-10 18:37:00,62.3,59.3,29.86,West,259,8.0,8.0,90,0.04,-RA,,0.64,WeatherDisplay:10.37,2013-05-10 22:37:00,
2013-05-10 18:42:00,62.3,59.3,29.86,West,270,6.9,6.9,90,0.03,-RA,,0.64,WeatherDisplay:10.37,2013-05-10 22:42:00,
2013-05-10 18:47:00,62.3,59.3,29.86,SW,214,6.0,6.0,90,0.03,-RA,,0.64,WeatherDisplay:10.37,2013-05-10 22:47:00,
2013-05-10 18:52:00,62.3,59.3,29.86,West,259,7.0,7.0,90,0.02,-RA,,0.64,WeatherDisplay:10.37,2013-05-10 22:52:00,
2013-05-10 18:57:00,62.2,59.2,29.86,SW,233,5.0,5.0,90,0.01,-RA,,0.64,WeatherDisplay:10.37,2013-05-10 22:57:00,
2013-05-10 19:02:00,62.3,59.3,29.86,SW,229,7.0,7.0,90,0.01,OVC,,0.64,WeatherDisplay:10.37,2013-05-10 23:02:00,
2013-05-10 19:07:00,62.3,59.3,29.86,WSW,240,5.8,5.8,90,0.01,OVC,,0.64,WeatherDisplay:10.37,2013-05-10 23:07:00,
2013-05-10 19:12:00,62.3,59.3,29.86,WSW,252,13.0,13.0,90,0.02,RA,,0.65,WeatherDisplay:10.37,2013-05-10 23:12:00,
2013-05-10 19:17:00,62.4,59.4,29.86,WSW,244,6.0,6.0,90,0.02,RA,,0.65,WeatherDisplay:10.37,2013-05-10 23:17:00,
2013-05-10 19:22:00,62.4,59.4,29.86,West,260,8.1,8.1,90,0.01,RA,,0.65,WeatherDisplay:10.37,2013-05-10 23:22:00,
2013-05-10 19:27:00,62.5,59.5,29.86,WSW,240,6.0,6.0,90,0.01,OVC,,0.65,WeatherDisplay:10.37,2013-05-10 23:27:00,
2013-05-10 19:32:00,62.5,59.5,29.86,WSW,237,7.0,7.0,90,0.01,OVC,,0.65,WeatherDisplay:10.37,2013-05-10 23:32:00,
2013-05-10 19:37:00,62.5,59.5,29.86,WSW,249,8.1,8.1,90,0.01,OVC,,0.65,WeatherDisplay:10.37,2013-05-10 23:37:00,
2013-05-10 19:42:00,62.5,59.5,29.87,WSW,237,5.0,5.0,90,0.01,OVC,,0.65,WeatherDisplay:10.37,2013-05-10 23:42:00,
2013-05-10 19:47:00,62.6,59.6,29.86,WSW,239,6.0,6.0,90,0.02,RA,,0.66,WeatherDisplay:10.37,2013-05-10 23:47:00,
2013-05-10 19:52:00,62.5,59.5,29.87,WSW,247,5.0,5.0,90,0.02,RA,,0.66,WeatherDisplay:10.37,2013-05-10 23:52:00,
2013-05-10 19:57:00,62.5,59.5,29.87,WSW,249,3.5,3.5,90,0.02,OVC,,0.66,WeatherDisplay:10.37,2013-05-10 23:57:00,
2013-05-10 20:02:00,62.6,59.6,29.87,WSW,246,6.0,6.0,90,0.02,-RA,,0.66,WeatherDisplay:10.37,2013-05-11 00:02:00,
2013-05-10 20:07:00,62.6,59.6,29.87,SW,232,5.0,5.0,90,0.02,-RA,,0.66,WeatherDisplay:10.37,2013-05-11 00:07:00,
2013-05-10 20:12:00,62.5,59.5,29.87,SW,236,7.0,7.0,90,0.01,-RA,,0.66,WeatherDisplay:10.37,2013-05-11 00:12:00,
2013-05-10 20:17:00,62.4,59.4,29.88,SW,236,5.0,5.0,90,0.01,-RA,,0.66,WeatherDisplay:10.37,2013-05-11 00:17:00,
2013-05-10 20:22:00,62.4,59.4,29.88,SW,236,4.0,4.0,90,0.01,-RA,,0.66,WeatherDisplay:10.37,2013-05-11 00:22:00,
2013-05-10 20:27:00,62.3,59.3,29.88,SW,236,5.0,5.0,90,0.01,-RA,,0.66,WeatherDisplay:10.37,2013-05-11 00:27:00,
2013-05-10 20:32:00,62.3,59.3,29.88,SW,226,5.8,5.8,90,0.01,-RA,,0.66,WeatherDisplay:10.37,2013-05-11 00:32:00,
2013-05-10 20:37:00,62.3,59.3,29.88,SW,228,7.0,7.0,90,0.01,-RA,,0.66,WeatherDisplay:10.37,2013-05-11 00:37:00,
2013-05-10 20:42:00,62.3,59.3,29.88,SW,229,7.0,7.0,90,0.01,-RA,,0.66,WeatherDisplay:10.37,2013-05-11 00:42:00,
2013-05-10 20:47:00,62.2,59.2,29.88,SW,232,4.6,4.6,90,0.00,-RA,,0.66,WeatherDisplay:10.37,2013-05-11 00:47:00,
2013-05-10 20:52:00,62.2,59.2,29.88,SW,232,4.0,4.0,90,0.00,-RA,,0.66,WeatherDisplay:10.37,2013-05-11 00:52:00,
2013-05-10 20:57:00,62.3,59.3,29.88,SW,232,3.5,3.5,90,0.00,-RA,,0.66,WeatherDisplay:10.37,2013-05-11 00:57:00,
2013-05-10 21:02:00,62.3,59.3,29.88,SW,232,6.0,6.0,90,0.00,OVC,,0.66,WeatherDisplay:10.37,2013-05-11 01:02:00,
2013-05-10 21:07:00,62.3,59.3,29.88,SW,233,4.0,4.0,90,0.00,OVC,,0.66,WeatherDisplay:10.37,2013-05-11 01:07:00,
2013-05-10 21:12:00,62.3,59.3,29.88,SW,233,5.8,5.8,90,0.00,OVC,,0.66,WeatherDisplay:10.37,2013-05-11 01:12:00,
2013-05-10 21:17:00,62.3,59.3,29.88,SW,234,5.8,5.8,90,0.00,OVC,,0.66,WeatherDisplay:10.37,2013-05-11 01:17:00,
2013-05-10 21:22:00,62.3,59.3,29.88,SW,234,5.0,5.0,90,0.00,OVC,,0.66,WeatherDisplay:10.37,2013-05-11 01:22:00,
2013-05-10 21:27:00,62.3,59.3,29.88,SW,234,4.0,4.0,90,0.00,OVC,,0.66,WeatherDisplay:10.37,2013-05-11 01:27:00,
2013-05-10 21:32:00,62.3,59.3,29.88,SW,234,5.8,5.8,90,0.00,OVC,,0.66,WeatherDisplay:10.37,2013-05-11 01:32:00,
2013-05-10 21:37:00,62.3,59.3,29.88,SW,234,4.0,4.0,90,0.00,OVC,,0.66,WeatherDisplay:10.37,2013-05-11 01:37:00,
2013-05-10 21:42:00,62.3,59.3,29.88,SW,234,4.0,4.0,90,0.00,OVC,,0.66,WeatherDisplay:10.37,2013-05-11 01:42:00,
2013-05-10 21:47:00,62.3,59.3,29.89,SW,234,4.6,4.6,90,0.00,OVC,,0.66,WeatherDisplay:10.37,2013-05-11 01:47:00,
2013-05-10 21:52:00,62.4,59.4,29.89,SW,235,3.5,3.5,90,0.00,OVC,,0.66,WeatherDisplay:10.37,2013-05-11 01:52:00,
2013-05-10 21:57:00,62.4,59.4,29.89,SW,232,8.1,8.1,90,0.00,OVC,,0.66,WeatherDisplay:10.37,2013-05-11 01:57:00,
2013-05-10 22:02:00,62.5,59.5,29.89,SW,232,4.0,4.0,90,0.00,OVC,,0.66,WeatherDisplay:10.37,2013-05-11 02:02:00,
2013-05-10 22:07:00,62.5,59.5,29.90,SW,233,3.5,3.5,90,0.00,OVC,,0.66,WeatherDisplay:10.37,2013-05-11 02:07:00,
2013-05-10 22:12:00,62.5,59.5,29.90,SW,234,6.0,6.0,90,0.00,OVC,,0.66,WeatherDisplay:10.37,2013-05-11 02:12:00,
2013-05-10 22:17:00,62.6,59.6,29.90,SW,234,4.0,4.0,90,0.00,OVC,,0.66,WeatherDisplay:10.37,2013-05-11 02:17:00,
2013-05-10 22:22:00,62.6,59.6,29.90,SW,233,4.0,4.0,90,0.00,OVC,,0.66,WeatherDisplay:10.37,2013-05-11 02:22:00,
2013-05-10 22:27:00,62.6,59.6,29.91,SW,232,1.1,0.0,90,0.00,OVC,,0.66,WeatherDisplay:10.37,2013-05-11 02:27:00,
2013-05-10 22:32:00,62.6,59.6,29.90,SW,232,3.5,3.5,90,0.00,OVC,,0.66,WeatherDisplay:10.37,2013-05-11 02:32:00,
2013-05-10 22:37:00,62.6,59.6,29.90,SW,232,3.5,3.5,90,0.00,OVC,,0.66,WeatherDisplay:10.37,2013-05-11 02:37:00,
2013-05-10 22:42:00,62.6,59.6,29.90,SW,232,4.0,4.0,90,0.00,OVC,,0.66,WeatherDisplay:10.37,2013-05-11 02:42:00,
2013-05-10 22:47:00,62.6,59.6,29.90,SW,232,4.6,4.6,90,0.00,OVC,,0.66,WeatherDisplay:10.37,2013-05-11 02:47:00,
2013-05-10 22:52:00,62.6,59.6,29.90,SW,232,3.5,3.5,90,0.00,OVC,,0.66,WeatherDisplay:10.37,2013-05-11 02:52:00,
2013-05-10 22:57:00,62.6,59.6,29.89,SW,232,0.0,0.0,90,0.00,OVC,,0.66,WeatherDisplay:10.37,2013-05-11 02:57:00,
2013-05-10 23:02:00,62.5,59.5,29.89,SW,232,4.0,4.0,90,0.00,OVC,,0.66,WeatherDisplay:10.37,2013-05-11 03:02:00,
2013-05-10 23:07:00,62.5,59.5,29.90,SW,233,6.0,6.0,90,0.00,OVC,,0.66,WeatherDisplay:10.37,2013-05-11 03:07:00,
2013-05-10 23:12:00,62.6,59.6,29.90,SW,233,4.0,4.0,90,0.00,OVC,,0.66,WeatherDisplay:10.37,2013-05-11 03:12:00,
2013-05-10 23:17:00,62.5,59.5,29.90,SW,232,6.0,6.0,90,0.00,OVC,,0.66,WeatherDisplay:10.37,2013-05-11 03:17:00,
2013-05-10 23:22:00,62.5,59.5,29.90,SW,232,3.5,3.5,90,0.00,OVC,,0.66,WeatherDisplay:10.37,2013-05-11 03:22:00,
2013-05-10 23:27:00,62.5,59.5,29.89,SW,232,3.5,3.5,90,0.00,OVC,,0.66,WeatherDisplay:10.37,2013-05-11 03:27:00,
2013-05-10 23:32:00,62.5,59.5,29.90,SW,232,2.3,2.3,90,0.00,OVC,,0.66,WeatherDisplay:10.37,2013-05-11 03:32:00,
2013-05-10 23:37:00,62.5,59.5,29.90,SW,232,4.0,4.0,90,0.00,OVC,,0.66,WeatherDisplay:10.37,2013-05-11 03:37:00,
2013-05-10 23:42:00,62.5,59.5,29.90,SW,232,3.5,3.5,90,0.00,OVC,,0.66,WeatherDisplay:10.37,2013-05-11 03:42:00,
2013-05-10 23:47:00,62.5,59.5,29.90,SW,232,3.5,3.5,90,0.00,OVC,,0.66,WeatherDisplay:10.37,2013-05-11 03:47:00,
2013-05-10 23:52:00,62.5,59.5,29.90,SW,232,3.5,3.5,90,0.00,OVC,,0.66,WeatherDisplay:10.37,2013-05-11 03:52:00,
2013-05-10 23:57:00,62.5,59.5,29.89,SW,232,0.0,0.0,90,0.00,OVC,,0.66,WeatherDisplay:10.37,2013-05-11 03:57:00,